Current Weather

Gen E L Logan International a

Gen E L Logan International a, Massachusetts (KBOS)

Report from: Thursday, May 19, 2022 2:54 PM EDT
Current time: Thursday, May 19, 2022 3:29 PM EDT

Nearby weather
Weather history
Weather forecast

Temperature13.3°C (55.9°F)
Dew point10.0°C (50.0°F)
Winds 8 kts (4.1 m/s, 9.2 mph) South (170°)
Visibility10 mi. (16.1 km)
Clouds Ceiling: Overcast 1,600 ft. (488 m)
Altimeter29.73 in.Hg (1007 mB)
Relative humidity80 %
Density altitude192 ft. (59 m)
Sea-level pressure100.7 kPa (1007 mB, 29.73 in.Hg)
Remarks Automated weather observing station with precipitation discriminator
Flight conditions Marginal Visual Meteorological Conditions
Raw dataKBOS 191854Z 17008KT 10SM OVC016 13/10 A2973 RMK AO2 SLP067 T01330100
An error has occurred. This application may no longer respond until reloaded. Reload 🗙